Woodland Park Weather Observations

home  gauges   today   yesterday   NOAA reports   graphs 
this month    this year    monthly records   extremes  

Observations from 9/15/2019 12:00 am back to 9/12/2019 12:20 am half hourly.

 

Observations previous 72 hours
 
Date/Time
MST
 
Temp
°F
App
Temp
°F
Heat
Index
°F
Wind
Chill
°F
Dew
Point
°F
Rel
Hum
%
 
Dir
 
 
Spd
kph
Wind
Gust
kph
 
Speed
MPH
 
Gust
MPH
Press
MSL
in
Rain
Since 12am
in
15/12:00am 55.0 55.0 55.0 14.7 20 0.0 2.0 29.91 0.00 0 0
14/11:30pm 56.5 56.5 56.5 18.1 22 0.7 1.3 29.91 0.00 0 0
14/11:00pm 55.2 55.2 55.2 13.7 19 0.7 2.0 29.91 0.00 0 0
14/10:30pm 59.4 59.4 59.4 15.9 18 0.7 1.3 29.92 0.00 0 0
14/10:04pm 59.9 59.9 59.9 15.0 17 1.3 2.0 29.92 0.00 0 0
14/09:50pm 60.3 60.3 60.3 15.2 17 1.3 2.0 29.92 0.00 0 0
14/09:20pm 62.1 62.1 62.1 13.8 15 1.3 2.0 29.92 0.00 0 0
14/08:50pm 64.9 64.9 64.9 12.8 13 4.7 6.0 29.92 0.00 0 0
14/08:20pm 62.8 62.8 62.8 12.8 14 0.0 0.0 29.91 0.00 0 0
14/07:50pm 66.6 66.6 66.6 12.3 12 2.0 2.7 29.90 0.00 0 0
14/07:20pm 68.4 68.4 68.4 11.7 11 2.7 4.0 29.90 0.00 0 0
14/06:50pm 70.5 70.5 70.5 11.2 10 4.0 4.7 29.90 0.00 0 0
14/06:20pm 72.7 72.7 72.7 12.9 10 3.4 5.4 29.89 0.00 0 0
14/05:50pm 74.1 74.1 74.1 18.2 12 3.4 4.0 29.89 0.00 0 0
14/05:20pm 76.8 76.8 76.8 18.3 11 2.7 5.4 29.88 0.00 0 0
14/04:50pm 80.1 77.9 80.1 18.5 10 1.3 2.7 29.88 0.00 0 0
14/04:20pm 78.4 78.4 78.4 17.3 10 4.0 8.1 29.88 0.00 0 0
14/03:50pm 77.7 77.7 77.7 16.8 10 2.7 5.4 29.88 0.00 0 0
14/03:20pm 78.3 78.3 78.3 17.2 10 2.7 4.7 29.88 0.00 0 0
14/02:50pm 84.4 81.1 84.4 24.1 11 0.7 4.0 29.89 0.00 0 0
14/02:20pm 77.4 77.4 77.4 16.5 10 0.7 2.0 29.90 0.00 0 0
14/01:50pm 78.6 78.6 78.6 17.4 10 1.3 2.7 29.91 0.00 0 0
14/01:20pm 77.5 77.5 77.5 16.6 10 2.0 3.4 29.91 0.00 0 0
14/12:50pm 73.6 73.6 73.6 17.8 12 1.3 4.0 29.92 0.00 0 0
14/12:20pm 72.0 72.0 72.0 12.4 10 3.4 4.7 29.93 0.00 0 0
14/11:50am 71.6 71.6 71.6 12.1 10 4.0 6.0 29.93 0.00 0 0
14/11:20am 71.2 71.2 71.2 11.8 10 2.7 4.7 29.93 0.00 0 0
14/10:50am 68.4 68.4 68.4 11.7 11 2.7 4.0 29.94 0.00 0 0
14/10:20am 66.7 66.7 66.7 12.4 12 1.3 3.4 29.94 0.00 0 0
14/09:50am 64.9 64.9 64.9 12.8 13 2.0 3.4 29.94 0.00 0 0
14/09:20am 63.0 63.0 63.0 13.0 14 2.0 4.7 29.93 0.00 0 0
14/08:50am 60.4 60.4 60.4 16.7 18 1.3 2.7 29.93 0.00 0 0
14/08:20am 57.2 57.2 57.2 15.2 19 0.7 2.0 29.93 0.00 0 0
14/07:50am 53.2 53.2 53.2 12.0 19 0.0 0.0 29.93 0.00 0 0
14/07:20am 49.5 49.5 49.5 12.1 22 0.0 0.0 29.93 0.00 0 0
14/06:50am 51.1 51.1 51.1 12.4 21 0.0 0.0 29.92 0.00 0 0
14/06:20am 53.2 53.2 53.2 12.0 19 2.7 4.7 29.91 0.00 0 0
14/05:50am 54.0 54.0 54.0 11.3 18 0.7 2.0 29.90 0.00 0 0
14/05:20am 53.2 53.2 52.6 18.3 25 4.0 8.1 29.90 0.00 0 0
14/04:50am 52.0 52.0 52.0 28.4 40 1.3 2.7 29.90 0.00 0 0
14/04:20am 52.7 52.7 52.7 29.0 40 1.3 2.0 29.91 0.00 0 0
14/03:50am 49.3 49.3 49.3 30.4 48 0.0 0.0 29.91 0.00 0 0
14/03:20am 51.1 51.1 51.1 29.3 43 0.0 0.0 29.91 0.00 0 0
14/02:50am 51.1 51.1 51.1 29.3 43 0.0 0.0 29.91 0.00 0 0
14/02:20am 52.0 52.0 52.0 29.6 42 0.0 0.0 29.91 0.00 0 0
14/01:50am 50.2 50.2 50.2 29.1 44 0.7 1.3 29.92 0.00 0 0
14/01:20am 52.2 52.2 52.2 29.1 41 1.3 2.0 29.92 0.00 0 0
14/12:50am 50.7 50.7 50.7 28.4 42 1.3 2.7 29.91 0.00 0 0
 
Date/Time
MST
 
Temp
°F
App
Temp
°F
Heat
Index
°F
Wind
Chill
°F
Dew
Point
°F
Rel
Hum
%
 
Dir
 
 
Spd
km/h
Wind
Gust
km/h
 
Speed
MPH
 
Gust
MPH
Press
MSL
in
Rain
Since 9am
in
 
Solar
W/m2
 
UV
Index
14/12:20am 50.0 50.0 50.0 28.9 44 0.0 0.0 29.91 0.00 0 0
13/11:50pm 50.0 50.0 50.0 30.0 46 0.0 0.0 29.91 0.00 0 0
13/11:20pm 51.6 51.6 51.6 30.4 44 0.0 0.0 29.92 0.00 0 0
13/10:50pm 50.5 50.5 50.5 31.6 48 0.0 0.0 29.93 0.00 0 0
13/10:00pm 52.3 52.3 52.3 32.2 46 0.0 1.3 29.93 0.00 0 0
13/09:30pm 54.3 54.3 54.3 31.1 41 0.0 0.0 29.93 0.00 0 0
13/09:00pm 55.6 55.6 55.6 31.7 40 0.0 0.0 29.92 0.00 0 0
13/08:30pm 57.0 57.0 57.0 32.3 39 0.7 1.3 29.91 0.00 0 0
13/08:00pm 57.7 57.7 57.7 30.3 35 0.0 0.0 29.91 0.00 0 0
13/07:30pm 61.5 61.5 61.5 29.0 29 0.0 2.0 29.90 0.00 0 0
13/07:00pm 64.2 64.2 64.2 28.6 26 2.0 3.4 29.90 0.00 0 0
13/06:30pm 65.3 65.3 65.3 27.6 24 3.4 6.0 29.89 0.00 0 0
13/06:00pm 66.9 66.9 66.9 27.9 23 3.4 8.1 29.88 0.00 0 0
13/05:30pm 69.6 69.6 69.6 28.0 21 3.4 5.4 29.88 0.00 0 0
13/05:00pm 70.7 70.7 70.7 28.9 21 2.0 8.1 29.88 0.00 0 0
13/04:30pm 68.5 68.5 68.5 29.3 23 4.7 9.4 29.88 0.00 0 0
13/04:00pm 70.0 70.0 70.0 30.5 23 4.0 11.4 29.88 0.00 0 0
13/03:30pm 72.0 72.0 72.0 34.3 25 5.4 7.4 29.88 0.00 0 0
13/03:00pm 70.2 70.2 70.2 31.7 24 4.7 8.7 29.88 0.00 0 0
13/02:30pm 70.0 70.0 70.0 31.6 24 5.4 8.7 29.89 0.00 0 0
13/02:00pm 70.7 70.7 70.7 31.1 23 3.4 7.4 29.89 0.00 0 0
13/01:30pm 73.2 73.2 73.2 13.4 10 2.0 7.4 29.90 0.00 0 0
13/01:00pm 70.5 70.5 70.5 11.4 10 3.4 9.4 29.91 0.00 0 0
13/12:30pm 67.8 67.8 67.8 13.4 12 2.0 9.4 29.91 0.00 0 0
13/12:00pm 67.6 67.6 67.6 15.1 13 1.3 6.7 29.92 0.00 0 0
13/11:30am 65.8 65.8 65.8 23.7 20 1.3 10.7 29.92 0.00 0 0
13/11:00am 65.3 65.3 65.3 26.6 23 2.0 4.7 29.93 0.00 0 0
13/10:30am 62.4 62.4 62.4 29.8 29 1.3 9.4 29.93 0.00 0 0
13/10:00am 60.3 60.3 60.3 33.9 37 0.0 5.4 29.93 0.00 0 0
13/09:30am 54.7 54.7 54.7 36.4 50 0.7 4.7 29.92 0.00 0 0
13/09:00am 50.9 50.9 50.9 37.9 61 1.3 3.4 29.92 0.00 0 0
13/08:30am 46.8 46.8 46.8 36.0 66 1.3 1.3 29.93 0.00 0 0
13/08:30am 46.8 46.8 46.8 36.0 66 1.3 1.3 29.93 0.00 0 0
13/07:50am 45.3 45.3 45.3 35.7 69 0.7 2.0 29.92 0.00 0 0
13/07:20am 41.5 41.5 41.5 33.2 72 1.3 2.0 29.93 0.00 0 0
13/06:50am 40.6 40.6 40.6 32.7 73 0.0 0.0 29.92 0.00 0 0
13/06:20am 42.1 42.1 42.1 32.3 68 0.0 0.0 29.92 0.00 0 0
13/05:50am 40.8 40.8 40.8 32.8 73 0.0 1.3 29.92 0.00 0 0
13/05:20am 41.9 41.9 41.9 32.5 69 0.0 0.0 29.92 0.00 0 0
13/04:50am 44.4 44.4 44.4 32.6 63 0.7 1.3 29.93 0.00 0 0
13/04:20am 45.5 45.5 45.5 32.0 59 0.7 1.3 29.93 0.00 0 0
13/03:50am 47.1 47.1 47.1 32.7 57 1.3 2.7 29.93 0.00 0 0
13/03:20am 48.0 48.0 48.0 31.2 52 2.7 4.0 29.94 0.00 0 0
13/02:50am 48.4 48.4 47.5 31.1 51 3.4 4.7 29.94 0.00 0 0
13/02:20am 49.1 49.1 46.9 31.2 50 5.4 9.4 29.95 0.00 0 0
13/01:50am 45.5 45.5 45.5 29.8 54 0.7 2.0 29.96 0.00 0 0
13/01:20am 44.1 44.1 44.1 28.9 55 0.0 0.0 29.96 0.00 0 0
13/12:50am 45.7 45.7 45.7 28.1 50 0.0 0.0 29.96 0.00 0 0
 
Date/Time
WST
 
Temp
°F
App
Temp
°F
Heat
Index
°F
Wind
Chill
°F
Dew
Point
°F
Rel
Hum
%
 
Dir
 
 
Spd
km/h
Wind
Gust
km/h
 
Spd
kts
 
Gust
kts
Press
MSL
in
Rain
Since 9am
in
 
Solar
W/m2
 
UV
Index
13/12:20am 47.3 47.3 47.3 28.6 48 2.0 4.0 29.96 0.00 0 0
12/11:50pm 49.1 49.1 49.1 28.1 44 1.3 2.0 29.97 0.00 0 0
12/11:20pm 47.5 47.5 47.5 26.6 44 0.0 0.0 29.97 0.00 0 0
12/10:30pm 49.8 49.8 49.8 25.2 38 0.0 2.0 29.98 0.00 0 0
12/10:00pm 49.6 49.6 49.6 24.4 37 0.0 3.4 29.97 0.00 0 0
12/09:30pm 52.0 52.0 52.0 23.1 32 1.3 3.4 29.97 0.00 0 0
12/09:00pm 51.3 51.3 51.3 23.2 33 0.0 1.3 29.97 0.00 0 0
12/08:30pm 53.4 53.4 53.4 22.0 29 0.0 4.7 29.95 0.00 0 0
12/08:00pm 54.5 54.5 54.5 21.2 27 1.3 4.0 29.94 0.00 0 0
12/07:30pm 56.1 56.1 56.1 23.5 28 0.0 1.3 29.93 0.00 0 0
12/07:00pm 59.0 59.0 59.0 21.3 23 0.7 4.7 29.92 0.00 0 0
12/06:30pm 61.0 61.0 61.0 20.8 21 3.4 9.4 29.92 0.00 0 0
12/06:00pm 62.2 62.2 62.2 19.5 19 3.4 7.4 29.91 0.00 0 0
12/05:30pm 66.4 66.4 66.4 20.3 17 2.7 10.1 29.91 0.00 0 0
12/05:00pm 66.7 66.7 66.7 19.2 16 4.0 9.4 29.89 0.00 0 0
12/04:30pm 70.9 70.9 70.9 15.8 12 0.7 6.0 29.89 0.00 0 0
12/04:00pm 71.1 71.1 71.1 11.8 10 2.7 6.0 29.88 0.00 0 0
12/03:30pm 68.5 68.5 68.5 12.0 11 4.7 10.1 29.88 0.00 0 0
12/03:00pm 69.1 69.1 69.1 12.4 11 3.4 6.7 29.88 0.00 0 0
12/02:30pm 70.0 70.0 70.0 13.1 11 0.7 6.7 29.87 0.00 0 0
12/02:00pm 66.6 66.6 66.6 14.2 13 2.0 5.4 29.87 0.00 0 0
12/01:30pm 65.3 65.3 65.3 14.9 14 4.0 7.4 29.88 0.00 0 0
12/01:00pm 63.1 63.1 63.1 16.2 16 3.4 8.7 29.89 0.00 0 0
12/12:30pm 61.2 61.2 61.2 16.0 17 2.0 8.7 29.88 0.00 0 0
12/12:00pm 59.9 59.9 59.9 16.3 18 3.4 12.8 29.88 0.00 0 0
12/11:30am 58.5 58.5 58.3 16.4 19 4.7 9.4 29.88 0.00 0 0
12/11:00am 60.4 60.4 60.4 19.2 20 4.7 7.4 29.88 0.00 0 0
12/10:30am 56.7 56.7 56.7 19.3 23 0.7 8.1 29.89 0.00 0 0
12/10:00am 54.0 54.0 54.0 24.0 31 0.7 10.1 29.89 0.00 0 0
12/09:30am 50.9 50.9 49.9 27.5 40 4.0 8.7 29.89 0.00 0 0
12/09:00am 49.5 49.5 49.5 27.9 43 0.7 4.7 29.89 0.00 0 0
12/08:30am 46.4 46.4 46.4 30.7 54 1.3 4.7 29.88 0.00 0 0
12/08:00am 44.4 44.4 44.4 31.0 59 0.0 5.4 29.87 0.00 0 0
12/07:30am 41.0 41.0 41.0 30.5 66 0.0 1.3 29.87 0.00 0 0
12/07:30am 41.0 41.0 41.0 30.5 66 0.0 1.3 29.87 0.00 0 0
12/06:50am 40.6 40.6 40.6 30.2 66 0.0 0.0 29.86 0.00 0 0
12/06:20am 41.4 41.4 41.4 29.7 63 0.0 0.0 29.86 0.00 0 0
12/05:50am 42.3 42.3 42.3 30.6 63 0.7 2.0 29.85 0.00 0 0
12/05:20am 43.9 43.9 43.9 31.3 61 0.7 1.3 29.84 0.00 0 0
12/04:50am 45.7 45.7 45.7 31.7 58 0.0 1.3 29.84 0.00 0 0
12/04:20am 46.4 46.4 46.4 32.0 57 1.3 2.7 29.83 0.00 0 0
12/03:50am 47.5 47.5 47.5 32.6 56 2.0 5.4 29.83 0.00 0 0
12/03:20am 47.5 47.5 47.5 32.6 56 0.0 0.0 29.82 0.00 0 0
12/02:50am 47.8 47.8 47.8 32.0 54 0.7 2.0 29.83 0.00 0 0
12/02:20am 48.9 48.9 48.9 31.6 51 2.0 2.7 29.82 0.00 0 0
12/01:50am 50.4 50.4 50.4 30.3 46 0.7 2.0 29.82 0.00 0 0
12/01:20am 51.6 51.6 51.2 29.8 43 3.4 5.4 29.82 0.00 0 0
12/12:50am 53.1 53.1 53.1 28.7 39 1.3 2.7 29.79 0.00 0 0
12/12:20am 51.6 51.6 51.6 28.7 41 0.0 0.7 29.78 0.00 0 0
 
Date/Time
MST
 
Temp
°F
App
Temp
°F
Heat
Index
°F
Wind
Chill
°F
Dew
Point
°F
Rel
Hum
%
 
Dir
 
 
Spd
km/h
Wind
Gust
km/h
 
Speed
MPH
 
Gust
MPH
Press
MSL
in
Rain
Since 9am
in
 
Solar
W/m2
 
UV
Index




page updated 9/15/2019 12:00:02 AM
powered by  cumulus v1.9.4 (1099)
cumulus software support forum